Augusta, Wisconsin
Current Conditions -  °F | °C
As of 5:56 AM on Tuesday 27 Jan 2015 (Local Time) from KEAU Reporting Station
Overcast Overcast  
Wind Chill: 27°   Ceiling: 1800
Heat Index: 27°   Visibility: 10mi
Dew Point: 22°   Wind: 3mph
Humidity: 81%   Direction: 50°NE
Pressure: 30.1"   Gusts: NA
Location:  44.68°N, 91.12°W
Report Text: KEAU 271156Z 05003KT 10SM OVC018 M03/M06 A3010 RMK AO2 SLP205 70002 T10281056 11022 21028 52018
Loading
Personal Weather Stations






























Interactive Weather Map New forecast layout! Learn more

10-Day Weather Forecast

Advertisements
Track Severe Weather on mobile